Pagina principale
METAR-TAF:

METAR-TAF

Aeroporti :

East London, Sudafrica

latitudine: 33-02S, longitudine: 027-50E, altezza: 125 m

Osservazione

Il bollettino è stato emesso 10 ore e 35 minuti fa, alle 14:00 UTC
Vento 7 kt da sud, variando fra sud/sud-est e sud-ovest
Temperature 19°C
Umidità 64%
Pressione 1022 hPa
Visibilità 10 km o più
nessuna nube inferiore a 1500 m e nessun cumulonembo

METAR: FAEL 301400Z 19007KT 160V220 CAVOK 19/12 Q1022

Ora: 02:35 (00:35 UTC)

Previsione

Il bollettino è stato emesso 15 ore e 35 minuti fa, alle 09:00 UTC
Previsione valida dal 30 alle 10 UTC al 30 alle 19 UTC
Vento 8 kt da sud-ovest
Visibilità 10 km o più
nessuna nube inferiore a 1500 m e nessun cumulonembo
Evoluzione graduale
dal 30 alle 16 UTC al 30 alle 18 UTC
Vento 7 kt da nord/nord-est

TAF: FAEL 300900Z 3010/3019 22008KT CAVOK TX22/3011Z TN16/3019Z BECMG 3016/3018 03007KT

Osservazioni e previsioni meteorologiche di più di 4000 aeroporti (messaggi METAR e TAF).

Le stazioni disponibili sono rappresentate dai dischi gialli e rossi sulla carta.

Puntare il mouse per vedere il nome della stazione.

Clicca sopra per visualizzare le osservazioni e previsioni meteorologiche.

Per cambiare la mappa : fare clic sui pulsanti verdi con una croce nera per ingrandire, il pulsante verde con un trattino per diminuire, o sulla freccia verde per le mappe adiacenti.


METAR-TAF: